Time;durP1;ratioP1;P1;durP2;ratioP2;P2;SDS_P1;SDS_P2;PMS_P1;PMS_P2;Temp;Humidity;BMP_temperature;BMP_pressure;BME280_temperature;BME280_humidity;BME280_pressure;Samples;Min_cycle;Max_cycle;Signal;HPM_P1;HPM_P2
2022/05/19 00:01:04;;;;;;;1.60;1.00;;;17.80;54.80;18.10;97057.00;;;;5054091;28;20189;-85
2022/05/19 00:03:34;;;;;;;2.87;1.20;;;17.70;54.80;18.10;97067.00;;;;5053293;28;20231;-83
2022/05/19 00:06:03;;;;;;;1.53;1.20;;;17.70;54.90;18.00;97057.00;;;;5054341;28;20199;-84
2022/05/19 00:08:30;;;;;;;0.70;0.70;;;17.60;55.00;17.90;97052.00;;;;5052607;28;20232;-83
2022/05/19 00:11:02;;;;;;;1.00;0.90;;;17.60;55.10;17.90;97051.00;;;;5051717;28;20201;-83
2022/05/19 00:13:31;;;;;;;4.30;1.10;;;17.50;55.70;17.90;97052.00;;;;5051724;28;20199;-83
2022/05/19 00:15:59;;;;;;;0.80;0.80;;;17.50;55.20;17.80;97048.00;;;;5051941;28;20575;-83
2022/05/19 00:18:27;;;;;;;2.20;0.80;;;17.50;55.10;17.80;97047.00;;;;5051095;28;20225;-84
2022/05/19 00:20:55;;;;;;;1.10;1.00;;;17.40;55.00;17.70;97046.00;;;;5052983;28;20666;-84
2022/05/19 00:23:23;;;;;;;1.43;1.03;;;17.40;55.00;17.70;97043.00;;;;5045529;28;20201;-83
2022/05/19 00:25:50;;;;;;;1.10;1.00;;;17.30;54.90;17.60;97037.00;;;;5052719;28;20197;-84
2022/05/19 00:28:18;;;;;;;1.03;0.93;;;17.20;54.80;17.60;97043.00;;;;5051600;28;20580;-85
2022/05/19 00:30:45;;;;;;;0.90;0.90;;;17.30;55.00;17.60;97038.00;;;;5052460;28;20200;-85
2022/05/19 00:33:13;;;;;;;1.37;1.27;;;17.20;55.10;17.50;97037.00;;;;5048725;28;20596;-85
2022/05/19 00:35:41;;;;;;;1.30;0.90;;;17.20;55.20;17.50;97037.00;;;;5056685;28;20200;-84
2022/05/19 00:38:10;;;;;;;1.00;1.00;;;17.10;55.30;17.50;97027.00;;;;5060753;28;20228;-84
2022/05/19 00:40:38;;;;;;;1.50;0.97;;;17.10;55.50;17.50;97031.00;;;;5055166;28;20196;-84
2022/05/19 00:43:07;;;;;;;1.17;1.00;;;17.10;55.50;17.40;97032.00;;;;5048596;28;20197;-85
2022/05/19 00:45:47;;;;;;;0.70;0.70;;;17.00;55.60;17.40;97018.00;;;;5053282;28;20203;-85
2022/05/19 00:48:20;;;;;;;3.60;1.17;;;17.00;55.70;17.30;97014.00;;;;5055175;28;20217;-85
2022/05/19 00:50:52;;;;;;;1.57;1.10;;;16.90;55.70;17.30;97016.00;;;;5055245;28;20630;-85
2022/05/19 00:53:32;;;;;;;1.27;1.00;;;16.90;55.70;17.30;97016.00;;;;5055186;28;20201;-84
2022/05/19 00:56:12;;;;;;;1.17;0.97;;;16.90;55.80;17.20;97011.00;;;;5049684;28;20204;-85
2022/05/19 00:58:48;;;;;;;0.80;0.80;;;16.80;55.70;17.20;97008.00;;;;5054578;28;20224;-86
2022/05/19 01:01:16;;;;;;;1.00;1.00;;;16.70;55.60;17.20;97005.00;;;;5047941;28;20208;-84
2022/05/19 01:03:50;;;;;;;1.70;0.90;;;16.80;55.70;17.10;97013.00;;;;5054477;28;20211;-85
2022/05/19 01:06:21;;;;;;;1.83;1.37;;;16.70;55.70;17.10;97018.00;;;;5054249;28;20284;-85
2022/05/19 01:08:58;;;;;;;2.13;0.90;;;16.70;55.90;17.10;96993.00;;;;5053740;28;20216;-85
2022/05/19 01:11:25;;;;;;;1.00;1.00;;;16.60;56.10;17.10;97006.00;;;;5054267;28;20720;-85
2022/05/19 01:13:53;;;;;;;1.40;1.30;;;16.70;56.10;17.00;97009.00;;;;5052369;28;20284;-85
2022/05/19 01:16:20;;;;;;;2.07;1.07;;;16.60;56.00;17.00;97016.00;;;;5061792;28;20193;-85
2022/05/19 01:18:50;;;;;;;1.30;1.10;;;16.60;56.00;17.00;97014.00;;;;5053373;28;20620;-85
2022/05/19 01:21:20;;;;;;;1.13;1.03;;;16.60;56.00;17.00;97013.00;;;;5054933;28;20299;-85
2022/05/19 01:24:16;;;;;;;3.33;1.03;;;16.60;56.00;16.90;97018.00;;;;5052983;28;20231;-85
2022/05/19 01:26:47;;;;;;;0.87;0.87;;;16.60;56.30;16.90;97022.00;;;;5039595;28;20698;-86
2022/05/19 01:29:23;;;;;;;1.40;1.00;;;16.60;56.20;16.90;97011.00;;;;5050173;28;20217;-86
2022/05/19 01:31:53;;;;;;;2.17;1.10;;;16.50;56.20;16.90;97007.00;;;;5053816;28;20646;-86
2022/05/19 01:34:24;;;;;;;1.80;1.10;;;16.50;56.30;16.90;97007.00;;;;5058894;28;20553;-85
2022/05/19 01:36:52;;;;;;;1.83;1.10;;;16.40;56.30;16.80;97003.00;;;;5058301;28;20196;-85
2022/05/19 01:39:22;;;;;;;1.80;1.03;;;16.40;56.40;16.80;97013.00;;;;5052109;28;20227;-86
2022/05/19 01:42:18;;;;;;;0.97;0.87;;;16.40;56.60;16.80;97004.00;;;;5045091;28;20199;-86
2022/05/19 01:44:58;;;;;;;0.87;0.87;;;16.40;56.90;16.80;97000.00;;;;5055397;28;20559;-86
2022/05/19 01:47:37;;;;;;;1.20;1.00;;;16.40;56.90;16.70;96990.00;;;;5050349;28;20216;-86
2022/05/19 01:50:16;;;;;;;1.00;1.00;;;16.40;56.90;16.70;96989.00;;;;5047267;28;20206;-86
2022/05/19 01:52:52;;;;;;;0.80;0.80;;;16.30;56.90;16.60;96988.00;;;;5047566;28;20676;-86
2022/05/19 01:55:28;;;;;;;1.83;0.93;;;16.30;57.00;16.60;97000.00;;;;5056204;28;20198;-86
2022/05/19 01:58:07;;;;;;;1.00;1.00;;;16.20;56.90;16.60;96996.00;;;;5061024;28;20227;-86
2022/05/19 02:00:34;;;;;;;2.10;0.93;;;16.20;57.10;16.60;96993.00;;;;5053465;28;20257;-86
2022/05/19 02:03:12;;;;;;;1.23;1.03;;;16.20;57.10;16.50;96991.00;;;;5047421;28;20196;-85
2022/05/19 02:05:47;;;;;;;1.37;0.80;;;16.20;57.30;16.50;97003.00;;;;5053249;28;20199;-86
2022/05/19 02:08:21;;;;;;;1.27;1.17;;;16.10;57.40;16.50;96997.00;;;;5053524;28;20212;-86
2022/05/19 02:10:53;;;;;;;1.10;1.00;;;16.10;57.30;16.40;97001.00;;;;5050684;28;20193;-85
2022/05/19 02:13:23;;;;;;;2.13;1.07;;;16.10;57.50;16.40;97002.00;;;;5049183;28;20212;-83
2022/05/19 02:15:53;;;;;;;1.20;1.07;;;16.10;57.60;16.40;96999.00;;;;5052768;28;20750;-85
2022/05/19 02:18:25;;;;;;;1.00;1.00;;;16.00;57.70;16.40;96999.00;;;;5044804;28;20698;-84
2022/05/19 02:20:54;;;;;;;1.77;1.10;;;16.00;57.80;16.40;96998.00;;;;5038810;28;20224;-86
2022/05/19 02:23:22;;;;;;;1.10;1.00;;;16.00;57.70;16.30;97001.00;;;;5049376;28;20196;-85
2022/05/19 02:25:52;;;;;;;1.37;1.00;;;15.90;57.80;16.30;96999.00;;;;5052836;28;20670;-84
2022/05/19 02:28:27;;;;;;;0.93;0.93;;;15.90;57.90;16.30;97004.00;;;;5053179;28;20804;-85
2022/05/19 02:30:56;;;;;;;1.10;1.00;;;15.90;58.00;16.20;97010.00;;;;5053380;28;20188;-84
2022/05/19 02:33:23;;;;;;;1.57;1.00;;;15.90;58.00;16.20;96996.00;;;;5053403;28;20201;-85
2022/05/19 02:35:51;;;;;;;2.13;1.20;;;15.90;58.10;16.20;97001.00;;;;5050782;28;20560;-85
2022/05/19 02:38:21;;;;;;;0.87;0.87;;;15.90;58.20;16.20;97009.00;;;;5047738;28;20694;-85
2022/05/19 02:40:49;;;;;;;1.10;1.10;;;15.90;58.20;16.20;97005.00;;;;5048086;28;20213;-85
2022/05/19 02:43:18;;;;;;;0.97;0.90;;;15.80;58.20;16.10;97005.00;;;;5052829;28;20568;-85
2022/05/19 02:45:47;;;;;;;2.10;1.10;;;15.80;58.30;16.10;97010.00;;;;5052654;28;20188;-85
2022/05/19 02:48:16;;;;;;;0.87;0.87;;;15.70;58.30;16.10;97004.00;;;;5052620;28;20219;-85
2022/05/19 02:50:44;;;;;;;0.93;0.93;;;15.70;58.30;16.10;97007.00;;;;5052556;28;20203;-85
2022/05/19 02:53:11;;;;;;;0.87;0.87;;;15.70;58.30;16.10;97005.00;;;;5050999;28;20196;-85
2022/05/19 02:55:39;;;;;;;0.93;0.93;;;15.70;58.40;16.00;97004.00;;;;5052391;28;20200;-85
2022/05/19 02:58:07;;;;;;;2.67;1.00;;;15.70;58.40;16.00;96998.00;;;;5060081;22;20225;-85
2022/05/19 03:00:35;;;;;;;0.90;0.90;;;15.60;58.40;16.00;97001.00;;;;5027073;28;20940;-85
2022/05/19 03:03:04;;;;;;;1.13;0.90;;;15.60;58.40;15.90;96997.00;;;;5021822;28;20292;-85
2022/05/19 03:05:34;;;;;;;1.20;1.10;;;15.60;58.40;15.90;97000.00;;;;5018577;28;20204;-84
2022/05/19 03:08:02;;;;;;;0.80;0.80;;;15.50;58.90;15.90;96985.00;;;;5016479;28;20237;-85
2022/05/19 03:10:29;;;;;;;0.80;0.80;;;15.50;58.40;15.80;96999.00;;;;5011425;28;20206;-85
2022/05/19 03:12:57;;;;;;;1.47;0.80;;;15.50;58.50;15.80;96999.00;;;;5009440;28;20198;-85
2022/05/19 03:15:25;;;;;;;0.73;0.70;;;15.40;58.40;15.80;97005.00;;;;5011138;28;20875;-85
2022/05/19 03:17:52;;;;;;;1.07;0.80;;;15.40;58.50;15.80;96998.00;;;;5004781;28;20218;-84
2022/05/19 03:20:22;;;;;;;0.87;0.80;;;15.40;58.50;15.70;96991.00;;;;5011809;28;20698;-85
2022/05/19 03:22:49;;;;;;;1.83;1.00;;;15.40;58.50;15.70;96992.00;;;;5010550;28;20208;-85
2022/05/19 03:25:17;;;;;;;1.47;0.90;;;15.40;58.60;15.70;97000.00;;;;5011809;28;20197;-86
2022/05/19 03:27:44;;;;;;;0.80;0.80;;;15.30;58.60;15.70;96991.00;;;;5011283;28;20252;-87
2022/05/19 03:30:15;;;;;;;3.97;1.10;;;15.30;58.60;15.70;96999.00;;;;5012065;28;20297;-86
2022/05/19 03:32:43;;;;;;;0.93;0.90;;;15.30;58.60;15.60;96991.00;;;;5011244;28;20277;-85
2022/05/19 03:35:11;;;;;;;1.53;0.90;;;15.30;58.70;15.60;96988.00;;;;5008700;28;20198;-85
2022/05/19 03:37:40;;;;;;;0.83;0.83;;;15.30;58.80;15.60;96988.00;;;;5010629;28;20221;-84
2022/05/19 03:40:10;;;;;;;1.73;1.00;;;15.20;58.90;15.60;96996.00;;;;5006565;28;20232;-84
2022/05/19 03:42:37;;;;;;;1.03;1.00;;;15.20;58.90;15.60;96987.00;;;;5010888;28;20202;-85
2022/05/19 03:45:07;;;;;;;1.47;1.00;;;15.20;59.00;15.50;96991.00;;;;5010458;28;20205;-85
2022/05/19 03:47:34;;;;;;;1.10;1.00;;;15.20;59.00;15.50;96985.00;;;;5010577;28;20313;-85
2022/05/19 03:50:02;;;;;;;1.13;1.00;;;15.20;59.10;15.50;96991.00;;;;5011268;28;20623;-85
2022/05/19 03:52:29;;;;;;;0.87;0.70;;;15.10;59.10;15.50;96987.00;;;;5008227;28;20278;-86
2022/05/19 03:54:57;;;;;;;0.93;0.90;;;15.10;59.00;15.50;96996.00;;;;5010590;28;20202;-86
2022/05/19 03:57:25;;;;;;;1.00;1.00;;;15.10;59.20;15.50;96993.00;;;;5010957;28;20245;-86
2022/05/19 03:59:52;;;;;;;0.90;0.90;;;15.10;59.30;15.50;96987.00;;;;5009966;28;20218;-86
2022/05/19 04:02:20;;;;;;;2.40;1.03;;;15.10;59.50;15.50;96997.00;;;;5008026;28;20190;-85
2022/05/19 04:04:47;;;;;;;0.80;0.80;;;15.10;59.50;15.50;97000.00;;;;5009503;28;20197;-86
2022/05/19 04:07:15;;;;;;;1.10;1.00;;;15.10;59.50;15.50;96999.00;;;;5012754;28;20222;-86
2022/05/19 04:09:43;;;;;;;1.13;1.00;;;15.10;59.60;15.40;97002.00;;;;5016097;28;20297;-86
2022/05/19 04:12:16;;;;;;;0.80;0.80;;;15.10;59.70;15.40;97004.00;;;;5012284;28;20210;-86
2022/05/19 04:14:43;;;;;;;1.10;0.63;;;15.10;59.80;15.40;96998.00;;;;5014271;28;20202;-86
2022/05/19 04:17:10;;;;;;;1.00;0.90;;;15.10;59.80;15.50;97000.00;;;;5012969;28;20213;-86
2022/05/19 04:19:38;;;;;;;0.97;0.80;;;15.10;59.80;15.50;96990.00;;;;5015296;28;20222;-86
2022/05/19 04:22:05;;;;;;;2.90;0.93;;;15.10;59.90;15.50;96999.00;;;;5014362;28;20233;-86
2022/05/19 04:24:32;;;;;;;1.77;1.00;;;15.10;60.00;15.50;97001.00;;;;5013722;28;20198;-85
2022/05/19 04:26:59;;;;;;;1.00;0.90;;;15.10;60.00;15.60;97006.00;;;;5013202;28;20274;-84
2022/05/19 04:29:28;;;;;;;1.73;1.00;;;15.10;59.80;15.60;97004.00;;;;5016833;28;20198;-84
2022/05/19 04:31:55;;;;;;;1.43;1.00;;;15.10;59.60;15.60;96998.00;;;;5016395;28;20559;-84
2022/05/19 04:34:22;;;;;;;0.93;0.83;;;15.10;59.50;15.70;97007.00;;;;5016822;28;20248;-84
2022/05/19 04:36:49;;;;;;;0.90;0.90;;;15.10;59.50;15.70;97003.00;;;;5016746;28;20213;-83
2022/05/19 04:39:17;;;;;;;2.17;1.00;;;15.10;60.10;15.70;97013.00;;;;5017408;28;20198;-84
2022/05/19 04:41:44;;;;;;;0.90;0.83;;;15.20;59.50;15.80;97018.00;;;;5014008;28;20249;-85
2022/05/19 04:44:11;;;;;;;1.53;0.80;;;15.20;59.50;15.80;97016.00;;;;5013781;28;20297;-84
2022/05/19 04:46:40;;;;;;;1.17;0.90;;;15.30;59.40;15.90;97017.00;;;;5015283;28;20217;-83
2022/05/19 04:49:07;;;;;;;1.37;1.10;;;15.30;59.50;15.90;97015.00;;;;5026327;28;20190;-84
2022/05/19 04:51:34;;;;;;;1.23;1.00;;;15.40;59.50;15.90;97015.00;;;;5017527;28;20225;-84
2022/05/19 04:54:01;;;;;;;1.30;0.87;;;15.40;59.50;16.00;97016.00;;;;5014255;28;20206;-84
2022/05/19 04:56:30;;;;;;;3.53;1.20;;;15.40;59.60;16.00;97015.00;;;;5011807;28;20205;-84
2022/05/19 04:58:57;;;;;;;1.10;1.00;;;15.40;59.50;16.00;97016.00;;;;5014005;28;20202;-84
2022/05/19 05:01:25;;;;;;;1.07;0.90;;;15.40;60.00;16.00;97013.00;;;;5013377;28;20256;-82
2022/05/19 05:03:53;;;;;;;1.40;1.00;;;15.50;59.60;16.10;97008.00;;;;5011947;28;20639;-84
2022/05/19 05:06:20;;;;;;;0.80;0.80;;;15.50;59.60;16.10;97011.00;;;;5011806;28;20225;-85
2022/05/19 05:08:47;;;;;;;2.83;1.10;;;15.50;59.40;16.10;97008.00;;;;5014313;28;20212;-84
2022/05/19 05:11:15;;;;;;;1.07;0.93;;;15.60;59.20;16.10;97016.00;;;;5009826;28;20260;-84
2022/05/19 05:13:42;;;;;;;0.90;0.90;;;15.60;59.10;16.20;97019.00;;;;5009084;28;20198;-85
2022/05/19 05:16:09;;;;;;;0.67;0.67;;;15.60;59.00;16.20;97018.00;;;;5010563;28;20214;-84
2022/05/19 05:18:37;;;;;;;1.00;0.70;;;15.60;58.90;16.20;97017.00;;;;5010272;28;20191;-85
2022/05/19 05:21:07;;;;;;;1.40;0.83;;;15.60;58.80;16.30;97024.00;;;;5009263;28;20251;-85
2022/05/19 05:23:37;;;;;;;0.83;0.83;;;15.70;58.80;16.30;97029.00;;;;5013597;28;20200;-85
2022/05/19 05:26:09;;;;;;;0.70;0.70;;;15.70;58.60;16.30;97024.00;;;;5015766;28;20549;-85
2022/05/19 05:28:38;;;;;;;0.90;0.80;;;15.80;58.60;16.40;97039.00;;;;5014415;28;20985;-84
2022/05/19 05:31:06;;;;;;;0.67;0.67;;;15.80;58.80;16.40;97037.00;;;;5014987;28;20294;-86
2022/05/19 05:33:33;;;;;;;0.60;0.60;;;15.80;58.90;16.50;97035.00;;;;5013470;28;20202;-85
2022/05/19 05:36:01;;;;;;;0.83;0.80;;;15.90;59.10;16.50;97033.00;;;;5013717;28;20655;-83
2022/05/19 05:38:29;;;;;;;0.90;0.70;;;15.90;58.90;16.50;97042.00;;;;5014049;28;20304;-83
2022/05/19 05:40:58;;;;;;;1.27;0.90;;;16.00;58.90;16.60;97047.00;;;;5013389;28;20363;-85
2022/05/19 05:43:26;;;;;;;0.67;0.67;;;16.00;59.00;16.60;97052.00;;;;5013700;28;20285;-83
2022/05/19 05:45:53;;;;;;;2.00;0.80;;;16.00;58.90;16.70;97051.00;;;;5013446;28;20292;-84
2022/05/19 05:48:21;;;;;;;0.93;0.80;;;16.10;58.60;16.70;97053.00;;;;5012889;28;20297;-86
2022/05/19 05:50:48;;;;;;;0.90;0.90;;;16.20;58.50;16.80;97051.00;;;;5013492;28;20221;-83
2022/05/19 05:53:15;;;;;;;1.23;1.13;;;16.10;58.70;16.80;97049.00;;;;5013100;28;20198;-83
2022/05/19 05:55:46;;;;;;;0.83;0.80;;;16.20;58.90;16.80;97055.00;;;;5010934;28;20293;-86
2022/05/19 05:58:13;;;;;;;1.17;0.90;;;16.30;58.80;16.90;97056.00;;;;5005297;28;20621;-86
2022/05/19 06:00:43;;;;;;;1.63;0.90;;;16.30;58.70;16.90;97055.00;;;;5012327;28;20249;-88
2022/05/19 06:03:11;;;;;;;2.40;1.00;;;16.40;58.80;17.00;97047.00;;;;5012355;28;20194;-83
2022/05/19 06:05:38;;;;;;;1.13;0.77;;;16.40;58.60;17.00;97043.00;;;;5013110;28;20281;-84
2022/05/19 06:08:06;;;;;;;1.00;1.00;;;16.50;58.50;17.10;97053.00;;;;5013010;28;20218;-84
2022/05/19 06:10:34;;;;;;;1.13;0.80;;;16.50;58.40;17.10;97059.00;;;;5014392;28;20625;-84
2022/05/19 06:13:03;;;;;;;0.90;0.80;;;16.50;58.30;17.20;97064.00;;;;5013272;28;20205;-84
2022/05/19 06:15:31;;;;;;;1.30;0.83;;;16.60;58.40;17.30;97062.00;;;;5012947;28;20196;-86
2022/05/19 06:17:58;;;;;;;1.97;0.70;;;16.70;58.60;17.30;97057.00;;;;5015724;28;20217;-84
2022/05/19 06:20:26;;;;;;;1.00;0.90;;;16.70;58.60;17.40;97060.00;;;;5013988;28;20226;-84
2022/05/19 06:22:53;;;;;;;1.00;0.90;;;16.80;58.60;17.50;97059.00;;;;5012332;28;20809;-84
2022/05/19 06:25:24;;;;;;;1.00;0.80;;;16.80;58.60;17.50;97062.00;;;;5015314;28;20251;-85
2022/05/19 06:27:52;;;;;;;0.77;0.77;;;16.90;58.40;17.60;97059.00;;;;5004543;28;20272;-86
2022/05/19 06:30:23;;;;;;;2.20;0.80;;;17.00;58.40;17.70;97068.00;;;;5012457;28;20233;-84
2022/05/19 06:32:51;;;;;;;1.10;1.00;;;17.10;58.40;17.80;97066.00;;;;5011625;28;20209;-85
2022/05/19 06:35:22;;;;;;;0.73;0.73;;;17.10;58.20;17.90;97066.00;;;;5009513;28;20237;-84
2022/05/19 06:37:52;;;;;;;2.70;1.60;;;17.20;58.10;17.90;97064.00;;;;5012430;28;20210;-84
2022/05/19 06:40:25;;;;;;;4.90;2.20;;;17.30;58.30;18.00;97062.00;;;;5014259;28;20221;-84
2022/05/19 06:42:53;;;;;;;5.43;2.13;;;17.40;58.40;18.10;97061.00;;;;5014904;28;20220;-84
2022/05/19 06:45:26;;;;;;;2.47;1.33;;;17.50;58.50;18.20;97064.00;;;;5013120;28;20293;-84
2022/05/19 06:47:54;;;;;;;1.93;1.27;;;17.60;58.70;18.30;97065.00;;;;5005288;28;20225;-84
2022/05/19 06:50:25;;;;;;;6.20;2.50;;;17.60;58.60;18.40;97072.00;;;;5011014;28;20226;-85
2022/05/19 06:52:55;;;;;;;4.37;1.80;;;17.70;58.50;18.40;97069.00;;;;5010184;28;20281;-85
2022/05/19 06:55:25;;;;;;;4.37;1.90;;;17.80;58.70;18.50;97072.00;;;;5023099;28;20193;-85
2022/05/19 06:57:52;;;;;;;4.57;2.43;;;17.90;58.80;18.70;97073.00;;;;5011615;28;20249;-85
2022/05/19 07:00:23;;;;;;;5.60;2.20;;;18.00;59.20;18.80;97071.00;;;;5012786;28;20220;-85
2022/05/19 07:02:52;;;;;;;5.53;2.33;;;18.10;58.70;18.90;97070.00;;;;5013331;28;20191;-84
2022/05/19 07:05:24;;;;;;;3.70;2.13;;;18.20;59.00;19.00;97071.00;;;;5013108;28;20197;-85
2022/05/19 07:07:51;;;;;;;6.07;1.57;;;18.30;59.00;19.20;97062.00;;;;5006404;28;20711;-85
2022/05/19 07:10:21;;;;;;;3.20;1.63;;;18.50;58.80;19.40;97069.00;;;;5014006;28;20202;-85
2022/05/19 07:12:50;;;;;;;1.70;1.00;;;18.60;58.90;19.60;97054.00;;;;5013903;28;20795;-84
2022/05/19 07:15:20;;;;;;;1.40;1.30;;;18.80;59.10;19.90;97057.00;;;;5012622;28;20202;-85
2022/05/19 07:17:48;;;;;;;4.33;2.53;;;19.00;59.00;20.10;97057.00;;;;5018120;28;20214;-87
2022/05/19 07:23:01;;;;;;;5.57;2.80;;;19.40;59.00;20.60;97065.00;;;;5015155;28;20838;-83
2022/05/19 07:25:29;;;;;;;3.43;2.23;;;19.60;58.90;20.90;97076.00;;;;5015960;28;20231;-85
2022/05/19 07:27:56;;;;;;;1.47;1.30;;;19.80;58.90;21.10;97075.00;;;;5014216;28;20210;-85
2022/05/19 07:30:24;;;;;;;1.30;1.17;;;20.10;58.60;21.40;97083.00;;;;5023995;28;20272;-85
2022/05/19 07:32:54;;;;;;;3.40;1.47;;;20.30;58.50;21.60;97073.00;;;;5034190;28;20335;-85
2022/05/19 07:35:24;;;;;;;3.93;2.13;;;20.50;57.90;21.90;97075.00;;;;5019322;28;20615;-86
2022/05/19 07:37:51;;;;;;;7.57;2.50;;;20.70;57.90;22.10;97087.00;;;;5005515;28;20213;-85
2022/05/19 07:40:18;;;;;;;2.10;1.70;;;20.90;57.80;22.40;97081.00;;;;5013452;28;20284;-85
2022/05/19 07:42:46;;;;;;;9.47;3.80;;;21.20;57.80;22.70;97084.00;;;;5013182;28;20287;-85
2022/05/19 07:45:15;;;;;;;5.17;1.87;;;21.40;57.80;23.00;97081.00;;;;5012746;28;20226;-85
2022/05/19 07:47:43;;;;;;;2.73;1.70;;;21.60;57.70;23.20;97082.00;;;;5011870;28;20214;-86
2022/05/19 07:50:12;;;;;;;2.33;1.50;;;21.80;57.10;23.50;97080.00;;;;5012114;28;20193;-86
2022/05/19 07:52:40;;;;;;;1.53;1.30;;;22.00;56.20;23.70;97093.00;;;;5011992;28;20198;-85
2022/05/19 07:57:35;;;;;;;1.40;1.30;;;22.50;55.90;24.30;97083.00;;;;5090769;28;20703;-80
2022/05/19 08:00:02;;;;;;;1.97;1.73;;;22.70;55.60;24.50;97087.00;;;;5094125;28;20217;-80
2022/05/19 08:02:32;;;;;;;7.13;3.13;;;22.90;55.20;24.80;97087.00;;;;5094356;28;20263;-80
2022/05/19 08:04:59;;;;;;;2.67;1.80;;;23.10;55.30;25.10;97095.00;;;;5094924;28;20623;-80
2022/05/19 08:07:27;;;;;;;22.83;6.33;;;23.30;55.20;25.40;97084.00;;;;5094379;28;20482;-80
2022/05/19 08:15:36;;;;;;;3.20;1.67;;;24.00;54.50;26.40;97089.00;;;;5092934;28;20206;-80
2022/05/19 08:18:06;;;;;;;3.00;1.37;;;24.20;54.20;26.70;97093.00;;;;5092558;28;20253;-80
2022/05/19 08:20:34;;;;;;;3.43;2.10;;;24.40;54.10;27.00;97090.00;;;;5092791;28;20304;-81
2022/05/19 08:23:04;;;;;;;6.83;3.00;;;24.70;54.10;27.30;97084.00;;;;5092753;28;20226;-80
2022/05/19 08:25:31;;;;;;;2.03;1.83;;;24.90;53.90;27.60;97094.00;;;;5091689;28;20675;-80
2022/05/19 08:27:59;;;;;;;6.60;2.63;;;25.10;53.60;28.00;97086.00;;;;5075870;28;20298;-81
2022/05/19 08:30:27;;;;;;;6.20;3.00;;;25.40;53.90;28.40;97087.00;;;;5073689;28;20264;-81
2022/05/19 08:32:55;;;;;;;2.40;1.80;;;25.60;53.60;28.70;97095.00;;;;5072566;28;20227;-81
2022/05/19 08:35:22;;;;;;;3.37;1.50;;;25.90;53.20;29.10;97104.00;;;;5071707;28;20283;-82
2022/05/19 08:37:50;;;;;;;7.05;2.40;;;26.20;52.70;29.50;97106.00;;;;5071456;28;20659;-82
2022/05/19 08:40:20;;;;;;;1.95;1.60;;;26.40;52.80;29.90;97112.00;;;;5071446;28;20220;-81
2022/05/19 08:42:54;;;;;;;3.80;2.05;;;26.70;52.30;30.30;97101.00;;;;5071924;28;20184;-81
2022/05/19 08:45:29;;;;;;;1.25;1.15;;;27.00;51.60;30.70;97101.00;;;;5071502;28;20279;-82
2022/05/19 08:48:11;;;;;;;2.50;1.40;;;27.30;51.70;31.20;97099.00;;;;5071702;28;20650;-81
2022/05/19 08:50:47;;;;;;;1.48;1.20;;;27.60;50.90;31.70;97107.00;;;;5071428;28;20237;-81
2022/05/19 08:53:16;;;;;;;2.38;1.30;;;28.00;51.70;32.10;97118.00;;;;5071689;28;20226;-81
2022/05/19 08:55:51;;;;;;;1.42;1.15;;;28.30;50.80;32.50;97117.00;;;;5074244;28;20287;-82
2022/05/19 08:58:55;;;;;;;1.70;1.60;;;28.70;49.90;32.90;97107.00;;;;5075105;28;20305;-82
2022/05/19 09:01:29;;;;;;;1.02;1.02;;;29.00;48.40;33.10;97106.00;;;;5072024;28;20624;-82
2022/05/19 09:04:18;;;;;;;1.50;1.40;;;29.40;49.40;33.40;97104.00;;;;5074942;28;20188;-81
2022/05/19 09:10:06;;;;;;;1.77;1.23;;;30.20;48.40;34.00;97113.00;;;;5095048;28;20650;-82
2022/05/19 09:12:38;;;;;;;1.45;0.98;;;30.70;47.70;34.40;97108.00;;;;5094966;28;20184;-82
2022/05/19 09:15:11;;;;;;;1.92;1.00;;;31.10;47.50;34.60;97106.00;;;;5095471;28;20202;-83
2022/05/19 09:17:42;;;;;;;1.85;1.23;;;31.40;47.50;34.90;97107.00;;;;5095030;28;20784;-82
2022/05/19 09:20:15;;;;;;;2.20;1.50;;;31.80;46.80;35.20;97103.00;;;;5095366;28;20211;-82
2022/05/19 09:22:42;;;;;;;1.10;1.00;;;32.30;45.70;35.40;97104.00;;;;5095113;28;20839;-84
2022/05/19 09:25:13;;;;;;;1.40;1.30;;;32.60;45.00;35.60;97105.00;;;;5095608;28;20651;-83
2022/05/19 09:27:49;;;;;;;1.85;1.45;;;33.00;44.20;35.70;97105.00;;;;5095129;28;20231;-82
2022/05/19 09:30:30;;;;;;;2.38;1.63;;;33.30;42.90;35.90;97103.00;;;;5094865;28;20234;-82
2022/05/19 09:32:58;;;;;;;1.30;1.00;;;33.70;42.80;36.10;97100.00;;;;5091593;28;20592;-81
2022/05/19 09:35:37;;;;;;;2.08;1.13;;;34.00;42.80;36.20;97107.00;;;;5094384;28;20195;-82
2022/05/19 09:38:13;;;;;;;2.60;1.17;;;34.40;42.20;36.40;97105.00;;;;5087904;28;20285;-82
2022/05/19 09:40:46;;;;;;;1.20;1.10;;;34.70;41.80;36.50;97107.00;;;;5074593;28;20188;-83
2022/05/19 09:43:21;;;;;;;1.30;1.20;;;35.00;41.20;36.60;97109.00;;;;5089603;28;20183;-82
2022/05/19 09:45:51;;;;;;;3.45;1.10;;;35.30;40.60;36.70;97114.00;;;;5095168;28;20279;-82
2022/05/19 09:48:27;;;;;;;1.10;1.10;;;35.60;41.10;36.90;97111.00;;;;5095548;28;20583;-82
2022/05/19 09:51:03;;;;;;;1.27;1.17;;;36.00;40.40;37.00;97098.00;;;;5095335;28;20199;-83
2022/05/19 09:53:38;;;;;;;1.10;1.00;;;36.30;40.30;37.10;97099.00;;;;5094388;28;20175;-82
2022/05/19 09:56:13;;;;;;;2.35;1.27;;;36.50;40.00;37.20;97105.00;;;;5094330;28;20213;-82
2022/05/19 09:58:47;;;;;;;1.30;1.20;;;36.80;39.30;37.30;97106.00;;;;5094688;28;20184;-81
2022/05/19 10:01:25;;;;;;;2.47;1.10;;;37.10;38.50;37.40;97107.00;;;;5093805;28;20254;-82
2022/05/19 10:03:58;;;;;;;1.38;1.27;;;37.30;38.00;37.40;97102.00;;;;5086631;28;20268;-82
2022/05/19 10:06:35;;;;;;;2.38;1.20;;;37.50;37.60;37.50;97098.00;;;;5094336;28;20187;-81
2022/05/19 10:09:13;;;;;;;2.58;1.13;;;37.60;37.90;37.50;97100.00;;;;5094486;28;20274;-81
2022/05/19 10:11:52;;;;;;;0.88;0.88;;;37.80;37.10;37.50;97090.00;;;;5076268;28;20235;-82
2022/05/19 10:14:28;;;;;;;6.28;1.30;;;38.00;36.50;37.40;97090.00;;;;5074160;28;20741;-82
2022/05/19 10:17:12;;;;;;;1.02;0.95;;;38.10;36.30;37.30;97097.00;;;;5071227;28;20311;-82
2022/05/19 10:19:55;;;;;;;2.20;1.25;;;38.10;36.30;37.30;97093.00;;;;5076048;28;20207;-82
2022/05/19 10:22:56;;;;;;;1.38;1.10;;;38.20;37.00;37.20;97086.00;;;;5073943;28;20200;-82
2022/05/19 10:25:44;;;;;;;1.10;0.93;;;38.20;36.40;37.20;97089.00;;;;5085824;28;20823;-82
2022/05/19 10:31:35;;;;;;;1.27;1.23;;;38.30;36.80;37.30;97085.00;;;;5073671;28;20191;-82
2022/05/19 10:34:33;;;;;;;1.95;1.30;;;38.30;36.30;37.30;97080.00;;;;5073736;28;20859;-83
2022/05/19 10:37:15;;;;;;;1.30;1.20;;;38.30;36.40;37.30;97070.00;;;;5073464;28;20673;-83
2022/05/19 10:40:19;;;;;;;1.30;1.10;;;38.30;35.90;37.20;97072.00;;;;5073521;28;20207;-83
2022/05/19 10:43:02;;;;;;;2.70;1.38;;;38.30;35.60;37.00;97069.00;;;;5092091;28;20310;-84
2022/05/19 10:45:35;;;;;;;1.50;1.40;;;38.10;35.80;36.80;97072.00;;;;5082020;28;20192;-84
2022/05/19 10:48:36;;;;;;;2.03;1.40;;;38.00;35.50;36.70;97069.00;;;;5074406;28;20220;-82
2022/05/19 10:51:11;;;;;;;1.40;1.30;;;37.80;35.70;36.60;97065.00;;;;5086323;28;20632;-83
2022/05/19 10:54:15;;;;;;;1.20;1.15;;;37.50;35.90;36.40;97067.00;;;;5085298;28;20290;-82
2022/05/19 10:57:10;;;;;;;1.35;1.23;;;37.10;35.90;36.10;97058.00;;;;5088390;28;20778;-81
2022/05/19 11:00:02;;;;;;;1.08;1.00;;;36.70;36.00;35.80;97057.00;;;;5092885;28;20648;-82
2022/05/19 11:03:24;;;;;;;1.73;1.40;;;36.30;36.20;35.50;97055.00;;;;5091345;28;20302;-82
2022/05/19 11:06:07;;;;;;;1.63;1.45;;;35.90;36.70;35.10;97052.00;;;;5072645;28;20184;-82
2022/05/19 11:08:53;;;;;;;1.70;1.35;;;35.40;37.50;34.80;97043.00;;;;5086158;28;20252;-82
2022/05/19 11:11:34;;;;;;;2.63;1.27;;;35.00;37.90;34.60;97052.00;;;;5093534;28;20296;-82
2022/05/19 11:14:16;;;;;;;2.38;1.42;;;34.60;38.30;34.30;97048.00;;;;5093357;28;20570;-82
2022/05/19 11:16:56;;;;;;;1.45;1.35;;;34.30;38.40;34.00;97043.00;;;;5092058;28;20297;-82
2022/05/19 11:19:33;;;;;;;1.35;1.25;;;33.90;38.90;33.80;97041.00;;;;5092130;28;20202;-82
2022/05/19 11:22:06;;;;;;;1.73;1.45;;;33.60;38.80;33.50;97048.00;;;;5092403;28;20215;-82
2022/05/19 11:26:23;;;;;;;2.17;1.50;;;33.30;39.40;33.30;97040.00;;;;5092732;28;20274;-82
2022/05/19 11:27:34;;;;;;;1.75;1.63;;;33.00;39.60;33.10;97043.00;;;;5092053;28;20302;-82
2022/05/19 11:30:09;;;;;;;1.63;1.38;;;32.80;40.60;32.90;97039.00;;;;5091160;28;20228;-82
2022/05/19 11:32:38;;;;;;;2.40;1.30;;;32.50;41.10;32.70;97035.00;;;;5092882;28;20193;-82